Time;durP1;ratioP1;P1;durP2;ratioP2;P2;SDS_P1;SDS_P2;PMS_P1;PMS_P2;Temp;Humidity;BMP_temperature;BMP_pressure;BME280_temperature;BME280_humidity;BME280_pressure;Samples;Min_cycle;Max_cycle;Signal;HPM_P1;HPM_P2
2022/04/25 00:01:13;;;;;;;19.15;17.10;;;11.20;99.90;;;;;;5054104;28;20086;-49
2022/04/25 00:03:57;;;;;;;20.08;17.88;;;11.20;99.90;;;;;;5052743;28;20090;-52
2022/04/25 00:06:41;;;;;;;18.13;16.23;;;10.90;99.90;;;;;;5037528;28;20090;-52
2022/04/25 00:09:25;;;;;;;19.13;16.43;;;10.90;99.90;;;;;;5052934;28;20047;-52
2022/04/25 00:12:12;;;;;;;17.43;15.63;;;10.80;99.90;;;;;;5052823;28;20503;-52
2022/04/25 00:14:56;;;;;;;17.70;14.77;;;10.70;99.90;;;;;;5051071;28;20079;-50
2022/04/25 00:17:44;;;;;;;15.60;13.98;;;10.60;99.90;;;;;;5051886;28;20047;-51
2022/04/25 00:20:28;;;;;;;19.17;15.40;;;10.60;99.90;;;;;;5052717;28;20540;-53
2022/04/25 00:23:12;;;;;;;17.63;14.20;;;10.60;99.90;;;;;;5052193;28;20047;-51
2022/04/25 00:25:57;;;;;;;15.93;14.23;;;10.60;99.90;;;;;;5053035;28;20067;-54
2022/04/25 00:28:41;;;;;;;16.48;13.40;;;10.60;99.90;;;;;;5054802;28;20052;-50
2022/04/25 00:31:25;;;;;;;14.47;12.60;;;10.50;99.90;;;;;;5057983;28;20048;-55
2022/04/25 00:34:09;;;;;;;16.47;13.53;;;10.50;99.90;;;;;;5056858;28;20395;-50
2022/04/25 00:36:54;;;;;;;14.93;12.98;;;10.40;99.90;;;;;;5056104;28;20036;-52
2022/04/25 00:39:38;;;;;;;18.27;12.95;;;10.40;99.90;;;;;;5054016;28;20062;-54
2022/04/25 00:42:23;;;;;;;15.63;12.70;;;10.40;99.90;;;;;;5049738;28;20110;-53
2022/04/25 00:45:11;;;;;;;17.13;13.38;;;10.40;99.90;;;;;;5049971;28;20043;-54
2022/04/25 00:47:55;;;;;;;17.38;12.40;;;10.50;99.90;;;;;;5052161;28;20072;-56
2022/04/25 00:50:39;;;;;;;18.13;13.40;;;10.30;99.90;;;;;;5051828;28;20547;-56
2022/04/25 00:53:23;;;;;;;17.58;12.55;;;10.30;99.90;;;;;;5052027;28;20039;-57
2022/04/25 00:56:08;;;;;;;14.18;12.68;;;10.20;99.90;;;;;;5051729;28;20036;-54
2022/04/25 00:58:52;;;;;;;;;;;10.10;99.90;;;;;;5033464;28;20087;-56
2022/04/25 01:01:37;;;;;;;21.52;12.93;;;10.10;99.90;;;;;;5049200;28;19966;-54
2022/04/25 01:04:21;;;;;;;22.27;12.77;;;10.10;99.90;;;;;;5032031;28;20041;-55
2022/04/25 01:07:05;;;;;;;17.27;11.45;;;10.10;99.90;;;;;;5051745;28;20401;-57
2022/04/25 01:09:50;;;;;;;18.85;12.30;;;10.00;99.90;;;;;;5051696;28;20075;-51
2022/04/25 01:12:34;;;;;;;17.02;11.55;;;10.00;99.90;;;;;;5051231;28;20044;-52
2022/04/25 01:15:18;;;;;;;20.73;12.10;;;9.90;99.90;;;;;;5051079;28;20039;-54
2022/04/25 01:18:05;;;;;;;16.95;12.93;;;9.90;99.90;;;;;;5051918;28;20032;-54
2022/04/25 01:20:55;;;;;;;21.40;12.43;;;10.00;99.90;;;;;;5051444;28;20040;-52
2022/04/25 01:29:48;;;;;;;19.38;13.20;;;9.90;99.90;;;;;;5051831;28;20495;-55
2022/04/25 01:32:33;;;;;;;15.15;11.38;;;9.90;99.90;;;;;;5036128;28;20095;-53
2022/04/25 01:35:17;;;;;;;15.35;11.60;;;9.80;99.90;;;;;;5050745;28;20031;-54
2022/04/25 01:38:01;;;;;;;16.60;12.85;;;9.70;99.90;;;;;;5036160;28;20028;-51
2022/04/25 01:40:48;;;;;;;17.65;12.75;;;9.70;99.90;;;;;;5051343;28;20555;-52
2022/04/25 01:43:36;;;;;;;17.55;11.90;;;9.70;99.90;;;;;;5051631;28;20067;-50
2022/04/25 01:46:21;;;;;;;20.85;13.55;;;9.80;99.90;;;;;;5031487;28;20132;-50
2022/04/25 01:49:05;;;;;;;22.08;14.27;;;9.80;99.90;;;;;;5033064;28;20413;-55
2022/04/25 01:51:49;;;;;;;20.63;14.02;;;9.60;99.90;;;;;;5036218;28;20091;-52
2022/04/25 01:54:34;;;;;;;17.85;13.23;;;9.30;99.90;;;;;;5055510;28;20122;-50
2022/04/25 01:57:18;;;;;;;19.60;13.43;;;9.30;99.90;;;;;;5055559;28;20051;-51
2022/04/25 02:00:03;;;;;;;20.08;13.23;;;9.30;99.90;;;;;;5035431;28;20061;-51
2022/04/25 02:02:47;;;;;;;18.02;13.43;;;9.30;99.90;;;;;;5051969;28;20093;-51
2022/04/25 02:05:32;;;;;;;16.67;12.93;;;9.30;99.90;;;;;;5041022;28;20091;-51
2022/04/25 02:08:16;;;;;;;18.50;13.73;;;9.40;99.90;;;;;;5055331;28;20040;-53
2022/04/25 02:14:03;;;;;;;22.85;15.45;;;9.30;99.90;;;;;;5055476;28;20036;-53
2022/04/25 02:16:47;;;;;;;21.55;14.93;;;9.10;99.90;;;;;;5040203;28;20115;-50
2022/04/25 02:19:35;;;;;;;23.95;14.95;;;8.90;99.90;;;;;;5055242;28;20031;-52
2022/04/25 02:22:19;;;;;;;25.17;15.55;;;8.80;99.90;;;;;;5054757;28;20063;-51
2022/04/25 02:25:04;;;;;;;25.23;15.40;;;8.70;99.90;;;;;;5054870;28;20435;-53
2022/04/25 02:27:48;;;;;;;;;;;8.60;99.90;;;;;;5055259;28;20055;-50
2022/04/25 02:30:33;;;;;;;24.33;16.27;;;8.60;99.90;;;;;;5055008;28;19947;-52
2022/04/25 02:33:18;;;;;;;19.00;16.17;;;8.60;99.90;;;;;;5054303;28;20043;-52
2022/04/25 02:36:04;;;;;;;;;;;8.70;99.90;;;;;;5055169;28;20074;-51
2022/04/25 02:38:49;;;;;;;25.08;14.80;;;8.60;99.90;;;;;;5054372;28;19935;-50
2022/04/25 02:41:33;;;;;;;19.38;15.63;;;8.60;99.90;;;;;;5054918;28;20043;-50
2022/04/25 02:44:17;;;;;;;23.50;16.65;;;8.60;99.90;;;;;;5019217;28;20087;-50
2022/04/25 02:47:02;;;;;;;29.75;17.60;;;8.50;99.90;;;;;;5036528;28;20040;-54
2022/04/25 02:49:45;;;;;;;20.88;15.90;;;8.30;99.90;;;;;;5054699;28;20043;-49
2022/04/25 02:52:29;;;;;;;25.08;17.38;;;8.30;99.90;;;;;;5053973;28;20043;-54
2022/04/25 02:55:13;;;;;;;23.90;17.63;;;8.40;99.90;;;;;;5038896;28;20067;-54
2022/04/25 02:57:58;;;;;;;23.33;17.50;;;8.40;99.90;;;;;;5054762;28;20083;-52
2022/04/25 03:00:46;;;;;;;23.00;16.50;;;8.50;99.90;;;;;;5054013;28;20032;-49
2022/04/25 03:03:32;;;;;;;23.92;17.33;;;8.50;99.90;;;;;;5038331;28;20123;-49
2022/04/25 03:06:16;;;;;;;25.85;17.98;;;8.60;99.90;;;;;;5053852;28;20174;-54
2022/04/25 03:09:01;;;;;;;25.83;18.23;;;8.50;99.90;;;;;;5053704;28;20036;-53
2022/04/25 03:11:45;;;;;;;28.05;17.85;;;8.50;99.90;;;;;;5053799;28;20094;-53
2022/04/25 03:14:29;;;;;;;26.73;18.45;;;8.50;99.90;;;;;;5039266;28;20570;-50
2022/04/25 03:17:13;;;;;;;22.40;17.63;;;8.50;99.90;;;;;;5053163;28;20039;-51
2022/04/25 03:19:57;;;;;;;21.65;16.83;;;8.60;99.90;;;;;;5054117;28;20055;-56
2022/04/25 03:22:41;;;;;;;28.42;18.25;;;8.70;99.90;;;;;;5053960;28;20075;-53
2022/04/25 03:25:25;;;;;;;25.42;18.02;;;8.50;99.90;;;;;;5053391;28;20526;-53
2022/04/25 03:28:09;;;;;;;28.80;18.07;;;8.40;99.90;;;;;;5053970;28;20043;-53
2022/04/25 03:30:53;;;;;;;26.00;17.10;;;8.50;99.90;;;;;;5038545;28;20044;-54
2022/04/25 03:33:37;;;;;;;26.80;19.03;;;8.40;99.90;;;;;;5053137;28;20059;-53
2022/04/25 03:36:21;;;;;;;24.30;17.25;;;8.40;99.90;;;;;;5053272;28;20032;-55
2022/04/25 03:39:06;;;;;;;24.23;18.88;;;8.30;99.90;;;;;;5053625;28;20543;-54
2022/04/25 03:41:49;;;;;;;24.42;17.88;;;8.40;99.90;;;;;;5053719;28;20102;-52
2022/04/25 03:44:33;;;;;;;27.25;17.75;;;8.40;99.90;;;;;;5054041;28;20044;-52
2022/04/25 03:47:17;;;;;;;23.58;18.75;;;8.40;99.90;;;;;;5018024;28;20033;-53
2022/04/25 03:50:03;;;;;;;26.40;18.03;;;8.30;99.90;;;;;;5048921;28;20044;-53
2022/04/25 03:52:47;;;;;;;27.38;19.38;;;8.40;99.90;;;;;;5052765;28;20089;-53
2022/04/25 03:58:34;;;;;;;24.88;19.48;;;8.30;99.90;;;;;;5053378;28;20035;-51
2022/04/25 04:01:18;;;;;;;25.42;19.13;;;8.30;99.90;;;;;;5054456;28;20043;-52
2022/04/25 04:04:05;;;;;;;29.27;20.13;;;8.20;99.90;;;;;;5055143;28;20047;-55
2022/04/25 04:06:49;;;;;;;27.00;18.95;;;8.10;99.90;;;;;;5056648;28;20171;-51
2022/04/25 04:09:45;;;;;;;29.42;19.88;;;8.00;99.90;;;;;;5039845;28;20413;-52
2022/04/25 04:12:31;;;;;;;27.33;21.00;;;8.10;99.90;;;;;;5036678;28;20055;-55
2022/04/25 04:15:16;;;;;;;25.92;19.17;;;8.10;99.90;;;;;;5052725;28;20079;-51
2022/04/25 04:18:01;;;;;;;26.65;19.23;;;8.10;99.90;;;;;;5052203;28;20078;-56
2022/04/25 04:20:45;;;;;;;25.92;19.63;;;8.10;99.90;;;;;;5052327;28;20119;-52
2022/04/25 04:23:29;;;;;;;24.83;18.75;;;8.20;99.90;;;;;;5036846;28;20051;-52
2022/04/25 04:26:12;;;;;;;26.80;19.85;;;8.10;99.90;;;;;;5037195;28;20686;-57
2022/04/25 04:28:56;;;;;;;24.05;18.90;;;8.10;99.90;;;;;;5037099;28;20044;-56
2022/04/25 04:31:40;;;;;;;25.02;19.45;;;8.10;99.90;;;;;;5052393;28;20036;-55
2022/04/25 04:34:25;;;;;;;31.05;20.15;;;8.10;99.90;;;;;;5052812;28;20052;-56
2022/04/25 04:37:09;;;;;;;25.23;18.63;;;8.00;99.90;;;;;;5036788;28;20396;-56
2022/04/25 04:40:28;;;;;;;29.50;21.23;;;8.10;99.90;;;;;;5037500;28;20263;-57
2022/04/25 04:43:00;;;;;;;28.05;20.33;;;7.90;99.90;;;;;;5051607;28;20106;-52
2022/04/25 04:45:45;;;;;;;27.52;19.80;;;7.80;99.90;;;;;;5052427;28;20146;-56
2022/04/25 04:48:29;;;;;;;29.73;20.88;;;7.90;99.90;;;;;;5023126;28;20067;-58
2022/04/25 04:51:13;;;;;;;28.70;21.23;;;7.90;99.90;;;;;;5051634;28;20102;-54
2022/04/25 04:54:01;;;;;;;31.23;20.90;;;7.80;99.90;;;;;;5051687;28;20047;-57
2022/04/25 04:56:46;;;;;;;31.63;21.88;;;7.80;99.90;;;;;;5036413;28;20108;-53
2022/04/25 04:59:30;;;;;;;32.38;22.42;;;7.90;99.90;;;;;;5036916;28;20040;-56
2022/04/25 05:02:16;;;;;;;29.58;20.02;;;8.00;99.90;;;;;;5036505;28;20071;-56
2022/04/25 05:05:02;;;;;;;29.55;20.83;;;8.10;99.90;;;;;;5035946;28;20098;-58
2022/04/25 05:07:46;;;;;;;29.00;19.55;;;8.10;99.90;;;;;;5048055;28;20040;-56
2022/04/25 05:10:30;;;;;;;26.37;19.10;;;8.10;99.90;;;;;;5051205;28;20094;-55
2022/04/25 05:13:17;;;;;;;28.33;19.35;;;8.10;99.90;;;;;;5051521;28;20515;-54
2022/04/25 05:16:01;;;;;;;24.98;19.35;;;8.20;99.90;;;;;;5039900;28;20095;-57
2022/04/25 05:18:46;;;;;;;30.00;19.23;;;8.00;99.90;;;;;;5036513;28;20067;-55
2022/04/25 05:21:30;;;;;;;24.75;17.73;;;8.10;99.90;;;;;;5052012;28;20039;-55
2022/04/25 05:24:15;;;;;;;28.03;19.40;;;8.20;99.90;;;;;;5050671;28;20058;-56
2022/04/25 05:26:59;;;;;;;31.92;19.73;;;8.10;99.90;;;;;;5050534;28;20043;-53
2022/04/25 05:29:43;;;;;;;28.95;18.83;;;8.10;99.90;;;;;;5051443;28;20048;-52
2022/04/25 05:32:39;;;;;;;25.20;18.77;;;8.20;99.90;;;;;;5051297;28;20479;-56
2022/04/25 05:35:27;;;;;;;;;;;8.20;99.90;;;;;;5051592;28;20036;-53
2022/04/25 05:38:12;;;;;;;26.35;19.17;;;8.10;99.90;;;;;;5051890;28;19962;-54
2022/04/25 05:40:56;;;;;;;27.52;18.85;;;8.20;99.90;;;;;;5036378;28;20507;-53
2022/04/25 05:43:42;;;;;;;24.58;19.55;;;8.20;99.90;;;;;;5051093;28;20036;-52
2022/04/25 05:46:26;;;;;;;;;;;8.20;99.90;;;;;;5051608;28;20127;-56
2022/04/25 05:52:13;;;;;;;26.00;18.55;;;8.20;99.90;;;;;;5050900;28;20042;-53
2022/04/25 05:54:57;;;;;;;27.90;20.02;;;8.30;99.90;;;;;;5050990;28;20421;-55
2022/04/25 05:57:41;;;;;;;26.48;19.58;;;8.30;99.90;;;;;;5050843;28;20477;-55
2022/04/25 06:00:26;;;;;;;26.70;19.20;;;8.40;99.90;;;;;;5030978;28;20032;-53
2022/04/25 06:03:10;;;;;;;;;;;8.30;99.90;;;;;;5034249;28;20028;-57
2022/04/25 06:05:55;;;;;;;25.00;18.60;;;8.30;99.90;;;;;;5034675;28;20042;-50
2022/04/25 06:08:39;;;;;;;26.35;20.10;;;8.40;99.90;;;;;;5050647;28;20611;-53
2022/04/25 06:11:23;;;;;;;24.20;18.67;;;8.40;99.90;;;;;;5044038;28;20036;-55
2022/04/25 06:14:07;;;;;;;30.05;20.30;;;8.40;99.90;;;;;;5034943;28;20368;-53
2022/04/25 06:16:51;;;;;;;28.35;20.58;;;8.50;99.90;;;;;;5049052;28;20067;-54
2022/04/25 06:19:35;;;;;;;28.77;19.67;;;8.50;99.90;;;;;;5051082;28;20098;-56
2022/04/25 06:22:20;;;;;;;28.10;19.70;;;8.50;99.90;;;;;;5050538;28;20079;-56
2022/04/25 06:25:07;;;;;;;;;;;8.50;99.90;;;;;;5035864;28;20032;-54
2022/04/25 06:27:52;;;;;;;30.50;19.30;;;8.50;99.90;;;;;;5051597;28;19951;-54
2022/04/25 06:30:36;;;;;;;;;;;8.50;99.90;;;;;;5037143;28;20052;-54
2022/04/25 06:33:21;;;;;;;26.48;18.83;;;8.60;99.90;;;;;;5051257;28;20714;-56
2022/04/25 06:36:06;;;;;;;23.23;19.30;;;8.60;99.90;;;;;;5035119;28;20044;-57
2022/04/25 06:38:50;;;;;;;29.85;20.15;;;8.50;99.90;;;;;;5051467;28;20059;-58
2022/04/25 06:41:37;;;;;;;26.17;20.73;;;8.50;99.90;;;;;;5054128;28;20078;-52
2022/04/25 06:44:21;;;;;;;38.28;21.10;;;8.40;99.90;;;;;;5038972;28;20036;-56
2022/04/25 06:47:06;;;;;;;31.70;20.92;;;8.50;99.90;;;;;;5054122;28;20052;-57
2022/04/25 06:49:51;;;;;;;26.23;19.57;;;8.50;99.90;;;;;;5053987;28;20483;-55
2022/04/25 06:52:36;;;;;;;27.65;20.52;;;8.60;99.90;;;;;;5054501;28;20342;-55
2022/04/25 06:55:20;;;;;;;27.42;19.33;;;8.60;99.90;;;;;;5046345;28;20392;-54
2022/04/25 06:58:07;;;;;;;30.17;19.70;;;8.70;99.90;;;;;;5053650;28;20051;-58
2022/04/25 07:00:51;;;;;;;33.25;22.52;;;8.80;99.90;;;;;;5053657;28;20075;-55
2022/04/25 07:03:35;;;;;;;30.30;21.07;;;8.80;99.90;;;;;;5053460;28;20563;-55
2022/04/25 07:06:19;;;;;;;29.08;20.13;;;8.80;99.90;;;;;;5038514;28;20047;-56
2022/04/25 07:09:04;;;;;;;26.67;20.10;;;8.70;99.90;;;;;;5051640;28;20070;-54
2022/04/25 07:11:48;;;;;;;28.25;20.75;;;8.70;99.90;;;;;;5034093;28;20076;-56
2022/04/25 07:14:33;;;;;;;32.47;20.63;;;8.80;99.90;;;;;;5044562;28;20404;-53
2022/04/25 07:17:17;;;;;;;26.38;20.65;;;8.90;99.90;;;;;;5053135;28;20064;-55
2022/04/25 07:20:02;;;;;;;29.70;21.27;;;8.90;99.90;;;;;;5053638;28;20086;-52
2022/04/25 07:28:48;;;;;;;25.85;20.23;;;8.90;99.90;;;;;;5034452;28;20271;-54
2022/04/25 07:29:05;;;;;;;;;;;8.90;99.90;;;;;;5039441;28;20071;-57
2022/04/25 07:31:53;;;;;;;27.08;18.63;;;8.90;99.90;;;;;;5054328;28;19923;-53
2022/04/25 07:34:39;;;;;;;24.75;18.27;;;8.90;99.90;;;;;;5057146;28;20090;-52
2022/04/25 07:37:23;;;;;;;26.00;18.75;;;8.90;99.90;;;;;;5047762;28;20067;-56
2022/04/25 07:40:08;;;;;;;29.63;19.75;;;8.90;99.90;;;;;;5062243;28;20033;-58
2022/04/25 07:42:55;;;;;;;26.83;18.45;;;8.90;99.90;;;;;;5053117;28;20051;-56
2022/04/25 07:45:39;;;;;;;31.10;21.88;;;9.00;99.90;;;;;;5053551;28;20091;-57
2022/04/25 07:48:25;;;;;;;27.00;19.52;;;8.90;99.90;;;;;;5052926;28;20454;-55
2022/04/25 07:51:09;;;;;;;25.40;19.05;;;8.90;99.90;;;;;;5054086;28;20441;-52
2022/04/25 07:53:53;;;;;;;26.95;19.52;;;9.00;99.90;;;;;;5057097;28;20109;-53
2022/04/25 07:56:39;;;;;;;25.13;19.73;;;8.90;99.90;;;;;;5068807;28;20040;-52
2022/04/25 07:59:22;;;;;;;;;;;8.90;99.90;;;;;;5068152;28;20068;-54
2022/04/25 08:02:07;;;;;;;23.27;18.30;;;8.90;99.90;;;;;;5059468;28;19991;-54
2022/04/25 08:04:51;;;;;;;26.83;19.53;;;8.70;99.90;;;;;;5060064;28;20028;-53
2022/04/25 08:07:36;;;;;;;29.33;20.83;;;8.80;99.90;;;;;;5047140;28;20046;-52
2022/04/25 08:10:20;;;;;;;28.35;19.67;;;8.80;99.90;;;;;;5064629;28;20099;-53
2022/04/25 08:19:13;;;;;;;28.52;19.55;;;8.70;99.90;;;;;;5062706;28;20085;-52
2022/04/25 08:21:58;;;;;;;26.55;19.65;;;8.70;99.90;;;;;;5062925;28;20031;-56
2022/04/25 08:24:42;;;;;;;25.50;19.70;;;8.90;99.90;;;;;;5061024;28;20028;-51
2022/04/25 08:27:26;;;;;;;26.75;19.50;;;9.00;99.90;;;;;;5061970;28;20036;-51
2022/04/25 08:30:16;;;;;;;25.53;19.17;;;9.20;99.90;;;;;;5060991;28;20124;-52
2022/04/25 08:33:00;;;;;;;23.42;18.00;;;9.30;99.90;;;;;;5060475;28;20294;-52
2022/04/25 08:35:47;;;;;;;25.38;18.90;;;9.30;99.90;;;;;;5062429;28;20044;-51
2022/04/25 08:38:31;;;;;;;21.40;17.40;;;9.40;99.90;;;;;;5064155;28;20431;-51
2022/04/25 08:41:20;;;;;;;25.05;17.70;;;9.40;99.90;;;;;;5063295;28;20376;-50
2022/04/25 08:44:06;;;;;;;24.80;18.52;;;9.60;99.90;;;;;;5060288;28;20051;-53
2022/04/25 08:46:52;;;;;;;25.60;18.25;;;9.50;99.90;;;;;;5060182;28;20044;-57
2022/04/25 08:49:37;;;;;;;27.20;19.27;;;9.50;99.90;;;;;;5060799;28;20392;-51
2022/04/25 08:52:22;;;;;;;;;;;9.40;99.90;;;;;;5060163;28;20085;-53
2022/04/25 08:55:06;;;;;;;25.63;18.40;;;9.50;99.90;;;;;;5060736;28;20366;-52
2022/04/25 08:57:53;;;;;;;29.40;18.70;;;9.50;99.90;;;;;;5058309;28;20082;-55
2022/04/25 09:00:38;;;;;;;23.42;18.73;;;9.40;99.90;;;;;;5060163;28;20074;-52
2022/04/25 09:03:22;;;;;;;29.23;19.90;;;9.60;99.90;;;;;;5056988;28;20023;-53
2022/04/25 09:06:06;;;;;;;28.38;19.05;;;9.50;99.90;;;;;;5061877;28;20125;-55
2022/04/25 09:08:50;;;;;;;24.83;19.38;;;9.60;99.90;;;;;;5061160;28;20094;-52
2022/04/25 09:14:40;;;;;;;25.17;19.15;;;9.60;99.90;;;;;;5058182;28;20043;-54
2022/04/25 09:17:24;;;;;;;28.13;20.23;;;9.50;99.90;;;;;;5059483;28;20568;-52
2022/04/25 09:20:09;;;;;;;29.58;20.05;;;9.60;99.90;;;;;;5056482;28;20036;-56
2022/04/25 09:22:54;;;;;;;23.05;19.98;;;9.40;99.90;;;;;;5058093;28;20032;-53
2022/04/25 09:25:39;;;;;;;26.35;19.80;;;9.40;99.90;;;;;;5056216;28;20058;-53
2022/04/25 09:28:23;;;;;;;25.40;18.70;;;9.60;99.90;;;;;;5057423;28;20307;-49
2022/04/25 09:31:14;;;;;;;29.25;18.42;;;9.80;99.90;;;;;;5061351;28;20044;-52
2022/04/25 09:34:14;;;;;;;26.52;18.70;;;9.90;99.90;;;;;;5056564;28;20564;-54
2022/04/25 09:36:59;;;;;;;26.33;19.15;;;10.00;99.90;;;;;;5038178;28;20041;-54
2022/04/25 09:39:44;;;;;;;27.90;19.67;;;10.10;99.90;;;;;;5057145;28;20211;-53
2022/04/25 09:42:28;;;;;;;;;;;10.10;99.90;;;;;;5056360;28;20620;-52
2022/04/25 09:45:13;;;;;;;25.65;18.48;;;10.10;99.90;;;;;;5060255;28;19995;-51
2022/04/25 09:47:58;;;;;;;24.20;17.45;;;10.10;99.90;;;;;;5044103;28;20115;-53
2022/04/25 09:51:17;;;;;;;25.48;18.33;;;10.20;99.90;;;;;;5042145;28;20052;-52
2022/04/25 09:54:04;;;;;;;23.45;17.85;;;10.40;99.90;;;;;;4981846;28;20069;-55
2022/04/25 09:56:48;;;;;;;24.02;17.25;;;10.50;99.90;;;;;;5040673;28;20087;-51
2022/04/25 09:59:45;;;;;;;22.07;17.47;;;10.60;99.90;;;;;;5042780;28;20466;-55
2022/04/25 10:02:30;;;;;;;24.73;17.73;;;10.40;99.90;;;;;;5058190;28;20087;-52
2022/04/25 10:05:15;;;;;;;25.13;18.35;;;10.30;99.90;;;;;;5050359;28;20068;-51
2022/04/25 10:08:00;;;;;;;25.20;18.48;;;10.30;99.90;;;;;;5050322;28;20554;-54
2022/04/25 10:10:49;;;;;;;25.27;19.55;;;10.30;99.90;;;;;;5050945;28;20123;-52
2022/04/25 10:13:34;;;;;;;27.80;17.60;;;10.40;99.90;;;;;;5051421;28;20040;-53
2022/04/25 10:16:20;;;;;;;23.67;17.42;;;10.40;99.90;;;;;;5055636;28;20040;-53
2022/04/25 10:19:06;;;;;;;25.27;17.45;;;10.30;99.90;;;;;;5034699;28;20114;-53
2022/04/25 10:21:52;;;;;;;24.02;18.05;;;10.40;99.90;;;;;;5036999;28;20116;-50
2022/04/25 10:24:37;;;;;;;20.63;16.55;;;10.10;99.90;;;;;;5054313;28;20102;-54
2022/04/25 10:27:27;;;;;;;;;;;10.30;99.90;;;;;;5040101;28;20106;-53
2022/04/25 10:30:18;;;;;;;22.98;16.25;;;10.40;99.90;;;;;;5064102;28;19919;-56
2022/04/25 10:33:22;;;;;;;24.20;16.70;;;10.40;99.90;;;;;;5062275;28;20404;-56
2022/04/25 10:36:26;;;;;;;20.45;16.30;;;10.50;99.90;;;;;;5053067;28;20087;-55
2022/04/25 10:39:24;;;;;;;20.00;15.48;;;10.50;99.90;;;;;;5022008;28;20036;-55
2022/04/25 10:45:12;;;;;;;21.13;16.20;;;10.70;99.90;;;;;;5054379;28;20023;-53
2022/04/25 10:47:59;;;;;;;24.55;17.52;;;10.50;99.90;;;;;;5034722;28;20041;-56
2022/04/25 10:51:07;;;;;;;22.02;18.00;;;10.30;99.90;;;;;;5029835;28;20458;-55
2022/04/25 10:54:02;;;;;;;21.13;16.77;;;10.20;99.90;;;;;;5054016;28;20109;-55
2022/04/25 10:57:08;;;;;;;22.92;16.52;;;10.40;99.90;;;;;;5053980;28;20059;-55
2022/04/25 10:59:52;;;;;;;22.70;16.58;;;10.60;99.90;;;;;;5053793;28;20072;-54
2022/04/25 11:02:37;;;;;;;23.60;16.00;;;10.60;99.90;;;;;;5054315;28;20094;-56
2022/04/25 11:05:36;;;;;;;20.10;15.80;;;10.60;99.90;;;;;;5039742;28;20083;-53
2022/04/25 11:08:21;;;;;;;22.35;16.80;;;10.50;99.90;;;;;;5047193;28;20531;-56
2022/04/25 11:11:12;;;;;;;21.27;15.80;;;10.70;99.90;;;;;;5035120;28;20532;-54
2022/04/25 11:14:01;;;;;;;23.58;16.95;;;10.70;99.90;;;;;;5043884;28;20135;-53
2022/04/25 11:17:11;;;;;;;19.60;16.50;;;10.90;99.90;;;;;;5053767;28;20105;-54
2022/04/25 11:19:56;;;;;;;21.60;17.85;;;11.10;99.90;;;;;;5036241;28;20392;-55
2022/04/25 11:22:41;;;;;;;19.40;15.88;;;11.10;99.90;;;;;;5053243;28;20129;-53
2022/04/25 11:25:25;;;;;;;18.13;15.43;;;11.00;99.90;;;;;;5052523;28;20048;-55
2022/04/25 11:28:12;;;;;;;19.48;15.57;;;10.90;99.90;;;;;;5053176;28;20040;-57
2022/04/25 11:31:17;;;;;;;20.35;16.08;;;10.80;99.90;;;;;;5052028;28;20123;-57
2022/04/25 11:34:04;;;;;;;22.55;14.80;;;11.00;99.90;;;;;;5052945;28;20091;-54
2022/04/25 11:36:49;;;;;;;22.25;15.63;;;11.10;99.90;;;;;;5054700;28;20032;-56
2022/04/25 11:39:51;;;;;;;20.15;15.10;;;11.30;99.90;;;;;;5055719;28;20098;-58
2022/04/25 11:42:36;;;;;;;19.13;15.27;;;11.40;99.90;;;;;;5055506;28;20044;-53
2022/04/25 11:45:21;;;;;;;;;;;11.50;99.90;;;;;;5054629;28;20036;-55
2022/04/25 11:48:12;;;;;;;23.38;15.27;;;11.60;99.90;;;;;;5053533;28;19919;-56
2022/04/25 11:50:56;;;;;;;19.60;15.20;;;11.50;99.90;;;;;;5053469;28;20040;-55
2022/04/25 11:53:40;;;;;;;18.58;14.38;;;11.60;99.90;;;;;;5053995;28;20044;-55
2022/04/25 11:56:26;;;;;;;18.05;15.18;;;11.50;99.90;;;;;;5045261;28;20088;-58
2022/04/25 11:59:15;;;;;;;20.75;15.40;;;11.50;99.90;;;;;;5016813;28;20056;-51
2022/04/25 12:01:59;;;;;;;18.40;14.75;;;11.60;99.90;;;;;;5029942;28;20110;-57
2022/04/25 12:04:45;;;;;;;17.80;14.97;;;11.70;99.90;;;;;;5028109;28;20104;-57
2022/04/25 12:07:29;;;;;;;24.77;14.18;;;11.90;99.90;;;;;;5051071;28;20039;-56
2022/04/25 12:16:20;;;;;;;21.13;14.23;;;12.20;99.90;;;;;;5045612;28;20396;-58
2022/04/25 12:19:08;;;;;;;15.40;13.13;;;12.20;99.80;;;;;;5051243;28;20501;-57
2022/04/25 12:22:03;;;;;;;14.77;12.88;;;12.10;99.80;;;;;;5051244;28;20313;-57
2022/04/25 12:24:47;;;;;;;13.45;12.07;;;12.20;99.60;;;;;;5024948;28;20082;-55
2022/04/25 12:27:32;;;;;;;16.07;12.27;;;12.30;99.30;;;;;;5043276;28;20109;-58
2022/04/25 12:30:16;;;;;;;16.17;13.80;;;12.50;99.00;;;;;;5053160;28;20060;-55
2022/04/25 12:33:08;;;;;;;15.07;12.47;;;12.70;98.90;;;;;;5052412;28;20052;-55
2022/04/25 12:36:07;;;;;;;17.80;13.55;;;12.80;98.90;;;;;;5052628;28;20112;-54
2022/04/25 12:38:56;;;;;;;15.07;13.55;;;12.90;99.30;;;;;;5037065;28;20155;-55
2022/04/25 12:42:01;;;;;;;17.58;13.73;;;12.60;99.40;;;;;;5051724;28;20108;-54
2022/04/25 12:44:57;;;;;;;18.55;14.02;;;12.60;99.70;;;;;;5038318;28;20059;-56
2022/04/25 12:47:45;;;;;;;16.70;14.02;;;12.70;99.00;;;;;;5032468;28;20064;-54
2022/04/25 12:50:45;;;;;;;18.00;12.82;;;12.40;99.30;;;;;;5045989;28;20146;-54
2022/04/25 12:53:40;;;;;;;15.10;12.05;;;12.80;98.90;;;;;;5050917;28;20052;-56
2022/04/25 12:56:26;;;;;;;14.18;12.20;;;13.40;98.10;;;;;;5052065;28;20112;-58
2022/04/25 12:59:10;;;;;;;17.50;12.23;;;13.80;97.30;;;;;;5042082;28;20120;-55
2022/04/25 13:02:10;;;;;;;16.77;12.40;;;13.70;97.00;;;;;;5052260;28;20048;-57
2022/04/25 13:04:57;;;;;;;14.88;13.10;;;13.50;97.40;;;;;;5047210;28;20032;-56
2022/04/25 13:07:43;;;;;;;16.42;13.15;;;13.50;97.50;;;;;;5050558;28;20519;-55
2022/04/25 13:10:28;;;;;;;15.57;12.95;;;13.90;97.40;;;;;;5045013;28;20031;-57
2022/04/25 13:13:13;;;;;;;15.85;13.35;;;14.10;96.90;;;;;;5051315;28;20170;-57
2022/04/25 13:15:58;;;;;;;18.73;13.05;;;14.40;96.10;;;;;;5051302;28;20109;-55
2022/04/25 13:18:42;;;;;;;15.80;12.63;;;14.00;96.40;;;;;;5036492;28;20056;-56
2022/04/25 13:21:27;;;;;;;16.45;13.07;;;13.80;96.80;;;;;;5051250;28;20124;-54
2022/04/25 13:24:11;;;;;;;14.48;12.68;;;13.50;97.10;;;;;;5051284;28;20036;-56
2022/04/25 13:26:55;;;;;;;16.40;13.07;;;13.70;97.10;;;;;;5035528;28;20043;-56
2022/04/25 13:29:41;;;;;;;15.18;12.32;;;14.20;96.30;;;;;;5051095;28;20126;-57
2022/04/25 13:32:26;;;;;;;14.88;13.27;;;14.90;95.50;;;;;;5031371;28;20083;-57
2022/04/25 13:35:15;;;;;;;16.77;12.52;;;15.30;94.90;;;;;;5032485;28;20037;-58
2022/04/25 13:38:01;;;;;;;18.30;12.88;;;14.80;95.30;;;;;;5046401;28;20056;-56
2022/04/25 13:40:47;;;;;;;18.25;14.30;;;14.80;95.60;;;;;;5041153;28;20094;-56
2022/04/25 13:43:33;;;;;;;17.40;13.00;;;14.60;95.80;;;;;;5049443;28;20047;-54
2022/04/25 13:46:18;;;;;;;14.82;13.10;;;14.50;96.10;;;;;;5035616;28;20091;-54
2022/04/25 13:49:02;;;;;;;;;;;14.40;95.70;;;;;;5053098;28;20036;-51
2022/04/25 13:51:47;;;;;;;14.40;11.93;;;14.40;95.60;;;;;;5055259;28;19915;-53
2022/04/25 13:54:31;;;;;;;14.90;11.80;;;14.90;94.90;;;;;;5054858;28;20024;-52
2022/04/25 13:57:16;;;;;;;14.15;10.65;;;15.30;94.10;;;;;;5054261;28;20040;-55
2022/04/25 14:00:00;;;;;;;15.05;11.68;;;15.60;94.20;;;;;;5055393;28;20036;-55
2022/04/25 14:05:50;;;;;;;13.45;11.55;;;15.60;93.10;;;;;;5054623;28;20086;-56
2022/04/25 14:08:34;;;;;;;13.57;11.15;;;14.90;93.90;;;;;;5055255;28;20048;-51
2022/04/25 14:11:19;;;;;;;12.45;10.63;;;14.80;94.40;;;;;;5026015;28;20186;-55
2022/04/25 14:14:04;;;;;;;16.30;12.50;;;14.80;94.30;;;;;;5035020;28;20113;-56
2022/04/25 14:16:49;;;;;;;14.32;12.30;;;14.80;94.60;;;;;;5033499;28;20032;-57
2022/04/25 14:19:33;;;;;;;14.53;12.37;;;15.30;93.70;;;;;;5035413;28;20040;-57
2022/04/25 14:22:17;;;;;;;19.83;11.98;;;15.60;93.70;;;;;;5035444;28;20084;-59
2022/04/25 14:25:03;;;;;;;12.95;11.52;;;16.10;93.40;;;;;;5035406;28;20033;-50
2022/04/25 14:27:47;;;;;;;13.82;11.50;;;16.40;92.70;;;;;;5034717;28;20029;-51
2022/04/25 14:30:32;;;;;;;12.75;11.45;;;17.00;92.70;;;;;;5033464;28;20039;-50
2022/04/25 14:33:16;;;;;;;17.20;11.10;;;17.60;90.90;;;;;;5039253;28;20036;-52
2022/04/25 14:36:03;;;;;;;13.75;12.20;;;17.30;90.40;;;;;;5051546;28;20507;-56
2022/04/25 14:38:47;;;;;;;12.50;11.20;;;17.30;90.10;;;;;;5019438;28;20091;-51
2022/04/25 14:41:31;;;;;;;13.15;10.73;;;17.30;90.30;;;;;;5054079;28;20044;-56
2022/04/25 14:44:16;;;;;;;11.95;10.57;;;17.20;90.10;;;;;;5038601;28;20079;-53
2022/04/25 14:47:00;;;;;;;;;;;17.70;91.00;;;;;;5054375;28;20455;-58
2022/04/25 14:55:51;;;;;;;11.90;10.50;;;17.90;87.30;;;;;;5052090;28;20055;-53
2022/04/25 14:58:35;;;;;;;12.18;10.25;;;18.20;86.20;;;;;;5034414;28;20031;-55
2022/04/25 15:01:19;;;;;;;13.43;11.38;;;18.20;86.40;;;;;;5033110;28;20040;-55